sensor_id;sensor_type;location;lat;lon;timestamp;P1;durP1;ratioP1;P2;durP2;ratioP2
10142;SDS011;5112;54.088;13.446;2022-12-07T00:09:42;7.77;;;6.27;;
10142;SDS011;5112;54.088;13.446;2022-12-07T00:19:44;8.37;;;7.03;;
10142;SDS011;5112;54.088;13.446;2022-12-07T00:29:47;9.27;;;6.73;;
10142;SDS011;5112;54.088;13.446;2022-12-07T00:39:48;8.53;;;7.27;;
10142;SDS011;5112;54.088;13.446;2022-12-07T00:49:51;10.00;;;7.43;;
10142;SDS011;5112;54.088;13.446;2022-12-07T00:59:53;11.40;;;8.63;;
10142;SDS011;5112;54.088;13.446;2022-12-07T01:09:56;11.50;;;8.13;;
10142;SDS011;5112;54.088;13.446;2022-12-07T01:19:58;9.80;;;8.27;;
10142;SDS011;5112;54.088;13.446;2022-12-07T01:30:01;12.37;;;9.13;;
10142;SDS011;5112;54.088;13.446;2022-12-07T01:40:05;11.93;;;8.63;;
10142;SDS011;5112;54.088;13.446;2022-12-07T01:50:09;11.13;;;8.17;;
10142;SDS011;5112;54.088;13.446;2022-12-07T02:00:11;11.63;;;8.10;;
10142;SDS011;5112;54.088;13.446;2022-12-07T02:10:16;10.27;;;7.80;;
10142;SDS011;5112;54.088;13.446;2022-12-07T02:20:25;9.93;;;7.17;;
10142;SDS011;5112;54.088;13.446;2022-12-07T02:30:33;8.50;;;6.83;;
10142;SDS011;5112;54.088;13.446;2022-12-07T02:40:40;9.23;;;7.40;;
10142;SDS011;5112;54.088;13.446;2022-12-07T02:50:47;8.80;;;6.97;;
10142;SDS011;5112;54.088;13.446;2022-12-07T03:00:51;10.27;;;8.37;;
10142;SDS011;5112;54.088;13.446;2022-12-07T03:11:02;10.67;;;7.53;;
10142;SDS011;5112;54.088;13.446;2022-12-07T03:21:08;9.93;;;7.07;;
10142;SDS011;5112;54.088;13.446;2022-12-07T03:31:17;11.70;;;10.50;;
10142;SDS011;5112;54.088;13.446;2022-12-07T03:41:23;10.13;;;7.17;;
10142;SDS011;5112;54.088;13.446;2022-12-07T03:51:28;10.10;;;7.60;;
10142;SDS011;5112;54.088;13.446;2022-12-07T04:01:37;9.83;;;7.77;;
10142;SDS011;5112;54.088;13.446;2022-12-07T04:11:40;9.53;;;7.33;;
10142;SDS011;5112;54.088;13.446;2022-12-07T04:21:41;9.47;;;6.80;;
10142;SDS011;5112;54.088;13.446;2022-12-07T04:31:44;7.40;;;6.17;;
10142;SDS011;5112;54.088;13.446;2022-12-07T04:41:46;7.73;;;5.93;;
10142;SDS011;5112;54.088;13.446;2022-12-07T04:51:49;8.07;;;6.30;;
10142;SDS011;5112;54.088;13.446;2022-12-07T05:01:51;7.50;;;5.50;;
10142;SDS011;5112;54.088;13.446;2022-12-07T05:11:54;7.73;;;5.77;;
10142;SDS011;5112;54.088;13.446;2022-12-07T05:21:55;7.53;;;5.77;;
10142;SDS011;5112;54.088;13.446;2022-12-07T05:31:58;7.20;;;6.50;;
10142;SDS011;5112;54.088;13.446;2022-12-07T05:42:00;6.07;;;5.47;;
10142;SDS011;5112;54.088;13.446;2022-12-07T05:52:15;7.90;;;5.80;;
10142;SDS011;5112;54.088;13.446;2022-12-07T06:02:17;8.67;;;6.27;;
10142;SDS011;5112;54.088;13.446;2022-12-07T06:12:20;10.17;;;7.47;;
10142;SDS011;5112;54.088;13.446;2022-12-07T06:22:39;11.53;;;8.00;;
10142;SDS011;5112;54.088;13.446;2022-12-07T06:32:42;12.87;;;8.17;;
10142;SDS011;5112;54.088;13.446;2022-12-07T06:42:44;11.87;;;8.03;;
10142;SDS011;5112;54.088;13.446;2022-12-07T06:52:46;15.93;;;9.87;;
10142;SDS011;5112;54.088;13.446;2022-12-07T07:02:48;14.27;;;8.67;;
10142;SDS011;5112;54.088;13.446;2022-12-07T07:12:51;14.47;;;8.50;;
10142;SDS011;5112;54.088;13.446;2022-12-07T07:22:53;22.63;;;10.07;;
10142;SDS011;5112;54.088;13.446;2022-12-07T07:32:57;16.33;;;10.10;;
10142;SDS011;5112;54.088;13.446;2022-12-07T07:42:59;14.70;;;9.27;;
10142;SDS011;5112;54.088;13.446;2022-12-07T07:53:02;16.80;;;9.40;;
10142;SDS011;5112;54.088;13.446;2022-12-07T08:03:03;15.50;;;8.87;;
10142;SDS011;5112;54.088;13.446;2022-12-07T08:13:06;16.37;;;9.63;;
10142;SDS011;5112;54.088;13.446;2022-12-07T08:23:11;15.37;;;9.63;;
10142;SDS011;5112;54.088;13.446;2022-12-07T08:33:14;18.17;;;10.43;;
10142;SDS011;5112;54.088;13.446;2022-12-07T08:43:16;19.47;;;10.47;;
10142;SDS011;5112;54.088;13.446;2022-12-07T08:53:19;18.03;;;10.60;;
10142;SDS011;5112;54.088;13.446;2022-12-07T09:03:22;17.60;;;10.83;;
10142;SDS011;5112;54.088;13.446;2022-12-07T09:13:25;13.57;;;9.63;;
10142;SDS011;5112;54.088;13.446;2022-12-07T09:23:27;18.27;;;10.70;;
10142;SDS011;5112;54.088;13.446;2022-12-07T09:33:30;15.67;;;10.07;;
10142;SDS011;5112;54.088;13.446;2022-12-07T09:43:33;13.93;;;10.03;;
10142;SDS011;5112;54.088;13.446;2022-12-07T09:53:38;11.83;;;9.27;;
10142;SDS011;5112;54.088;13.446;2022-12-07T10:03:42;13.47;;;10.60;;
10142;SDS011;5112;54.088;13.446;2022-12-07T10:13:52;12.70;;;9.03;;
10142;SDS011;5112;54.088;13.446;2022-12-07T10:24:00;10.47;;;8.73;;
10142;SDS011;5112;54.088;13.446;2022-12-07T10:34:12;11.33;;;8.40;;
10142;SDS011;5112;54.088;13.446;2022-12-07T10:44:22;13.50;;;8.63;;
10142;SDS011;5112;54.088;13.446;2022-12-07T10:54:28;13.63;;;9.50;;
10142;SDS011;5112;54.088;13.446;2022-12-07T11:04:39;15.30;;;10.47;;
10142;SDS011;5112;54.088;13.446;2022-12-07T11:14:58;12.00;;;8.60;;
10142;SDS011;5112;54.088;13.446;2022-12-07T11:25:13;7.93;;;5.30;;
10142;SDS011;5112;54.088;13.446;2022-12-07T11:35:24;6.23;;;4.60;;
10142;SDS011;5112;54.088;13.446;2022-12-07T11:45:34;5.77;;;4.50;;
10142;SDS011;5112;54.088;13.446;2022-12-07T11:55:41;5.47;;;4.60;;
10142;SDS011;5112;54.088;13.446;2022-12-07T12:05:45;5.93;;;4.70;;
10142;SDS011;5112;54.088;13.446;2022-12-07T12:15:51;6.37;;;4.30;;
10142;SDS011;5112;54.088;13.446;2022-12-07T12:26:07;5.53;;;4.50;;
10142;SDS011;5112;54.088;13.446;2022-12-07T12:36:22;3.63;;;3.33;;
10142;SDS011;5112;54.088;13.446;2022-12-07T12:46:36;3.67;;;3.30;;
10142;SDS011;5112;54.088;13.446;2022-12-07T12:56:49;4.17;;;2.57;;
10142;SDS011;5112;54.088;13.446;2022-12-07T13:06:56;5.67;;;2.20;;
10142;SDS011;5112;54.088;13.446;2022-12-07T13:16:59;2.57;;;1.77;;
10142;SDS011;5112;54.088;13.446;2022-12-07T13:27:00;5.80;;;3.70;;
10142;SDS011;5112;54.088;13.446;2022-12-07T13:37:09;7.43;;;3.90;;
10142;SDS011;5112;54.088;13.446;2022-12-07T13:47:15;5.60;;;3.10;;
10142;SDS011;5112;54.088;13.446;2022-12-07T13:57:23;2.60;;;2.23;;
10142;SDS011;5112;54.088;13.446;2022-12-07T14:07:27;5.77;;;2.87;;
10142;SDS011;5112;54.088;13.446;2022-12-07T14:17:30;3.83;;;2.83;;
10142;SDS011;5112;54.088;13.446;2022-12-07T14:27:33;3.33;;;2.00;;
10142;SDS011;5112;54.088;13.446;2022-12-07T14:37:37;5.00;;;2.40;;
10142;SDS011;5112;54.088;13.446;2022-12-07T14:47:41;1.90;;;1.67;;
10142;SDS011;5112;54.088;13.446;2022-12-07T14:57:44;2.83;;;1.57;;
10142;SDS011;5112;54.088;13.446;2022-12-07T15:07:46;2.57;;;1.20;;
10142;SDS011;5112;54.088;13.446;2022-12-07T15:17:49;3.60;;;1.67;;
10142;SDS011;5112;54.088;13.446;2022-12-07T15:27:51;2.73;;;1.73;;
10142;SDS011;5112;54.088;13.446;2022-12-07T15:37:54;3.93;;;2.30;;
10142;SDS011;5112;54.088;13.446;2022-12-07T15:47:56;2.00;;;1.40;;
10142;SDS011;5112;54.088;13.446;2022-12-07T15:57:59;4.40;;;1.60;;
10142;SDS011;5112;54.088;13.446;2022-12-07T16:08:01;3.97;;;1.80;;
10142;SDS011;5112;54.088;13.446;2022-12-07T16:18:04;1.83;;;1.63;;
10142;SDS011;5112;54.088;13.446;2022-12-07T16:28:05;1.60;;;1.50;;
10142;SDS011;5112;54.088;13.446;2022-12-07T16:38:09;2.25;;;1.90;;
10142;SDS011;5112;54.088;13.446;2022-12-07T16:48:10;2.10;;;1.87;;
10142;SDS011;5112;54.088;13.446;2022-12-07T16:58:14;2.10;;;1.63;;
10142;SDS011;5112;54.088;13.446;2022-12-07T17:08:16;2.47;;;2.28;;
10142;SDS011;5112;54.088;13.446;2022-12-07T17:18:19;2.43;;;2.20;;
10142;SDS011;5112;54.088;13.446;2022-12-07T17:28:21;2.67;;;2.47;;
10142;SDS011;5112;54.088;13.446;2022-12-07T17:38:24;2.20;;;2.10;;
10142;SDS011;5112;54.088;13.446;2022-12-07T17:48:25;3.40;;;3.10;;
10142;SDS011;5112;54.088;13.446;2022-12-07T17:58:28;2.27;;;2.03;;
10142;SDS011;5112;54.088;13.446;2022-12-07T18:08:33;2.37;;;2.17;;
10142;SDS011;5112;54.088;13.446;2022-12-07T18:18:37;2.33;;;2.00;;
10142;SDS011;5112;54.088;13.446;2022-12-07T18:28:39;3.93;;;2.67;;
10142;SDS011;5112;54.088;13.446;2022-12-07T18:38:43;2.93;;;2.50;;
10142;SDS011;5112;54.088;13.446;2022-12-07T18:48:45;1.80;;;1.70;;
10142;SDS011;5112;54.088;13.446;2022-12-07T18:58:49;3.20;;;2.20;;
10142;SDS011;5112;54.088;13.446;2022-12-07T19:09:09;2.80;;;2.13;;
10142;SDS011;5112;54.088;13.446;2022-12-07T19:19:13;2.10;;;1.93;;
10142;SDS011;5112;54.088;13.446;2022-12-07T19:29:15;2.90;;;2.30;;
10142;SDS011;5112;54.088;13.446;2022-12-07T19:39:18;2.10;;;1.90;;
10142;SDS011;5112;54.088;13.446;2022-12-07T19:49:20;3.60;;;2.10;;
10142;SDS011;5112;54.088;13.446;2022-12-07T19:59:25;3.95;;;2.47;;
10142;SDS011;5112;54.088;13.446;2022-12-07T20:09:28;2.83;;;2.13;;
10142;SDS011;5112;54.088;13.446;2022-12-07T20:19:31;2.57;;;1.80;;
10142;SDS011;5112;54.088;13.446;2022-12-07T20:29:35;2.53;;;1.87;;
10142;SDS011;5112;54.088;13.446;2022-12-07T20:39:38;2.50;;;2.10;;
10142;SDS011;5112;54.088;13.446;2022-12-07T20:49:39;2.37;;;1.70;;
10142;SDS011;5112;54.088;13.446;2022-12-07T20:59:43;2.00;;;1.80;;
10142;SDS011;5112;54.088;13.446;2022-12-07T21:09:44;2.60;;;1.57;;
10142;SDS011;5112;54.088;13.446;2022-12-07T21:19:48;2.00;;;1.75;;
10142;SDS011;5112;54.088;13.446;2022-12-07T21:29:49;2.30;;;1.60;;
10142;SDS011;5112;54.088;13.446;2022-12-07T21:39:52;2.10;;;1.45;;
10142;SDS011;5112;54.088;13.446;2022-12-07T21:49:54;1.57;;;1.30;;
10142;SDS011;5112;54.088;13.446;2022-12-07T21:59:57;1.50;;;1.27;;
10142;SDS011;5112;54.088;13.446;2022-12-07T22:09:59;1.67;;;1.57;;
10142;SDS011;5112;54.088;13.446;2022-12-07T22:20:02;1.40;;;1.30;;
10142;SDS011;5112;54.088;13.446;2022-12-07T22:30:05;2.38;;;1.45;;
10142;SDS011;5112;54.088;13.446;2022-12-07T22:40:11;1.27;;;1.17;;
10142;SDS011;5112;54.088;13.446;2022-12-07T22:50:14;1.97;;;1.60;;
10142;SDS011;5112;54.088;13.446;2022-12-07T23:00:18;1.37;;;1.17;;
10142;SDS011;5112;54.088;13.446;2022-12-07T23:10:20;1.63;;;1.27;;
10142;SDS011;5112;54.088;13.446;2022-12-07T23:20:23;2.10;;;1.30;;
10142;SDS011;5112;54.088;13.446;2022-12-07T23:30:25;1.57;;;1.37;;
10142;SDS011;5112;54.088;13.446;2022-12-07T23:40:28;1.30;;;1.20;;
10142;SDS011;5112;54.088;13.446;2022-12-07T23:50:29;1.43;;;1.07;;
